Impacts METAR Board
IDs:

KMNZ - Hamilton Muni, TX, US

Updated at: 2300 UTC 18 Oct 2019
Potential Impact None Slight Moderate High
Time 18/11Z 18/12Z 18/13Z 18/14Z 18/15Z 18/16Z 18/17Z 18/18Z 18/19Z 18/20Z 18/21Z 18/22Z 18/23Z
Temp47 46 45 52 59 66 71 74 77 80 80 80 78
Dewpt44 45 45 49 47 46 47 49 50 49 50 50 47
Altim29.90 29.90 29.90 29.91 29.91 29.90 29.87 29.85 29.81 29.77 29.75 29.74 29.74
VIS10 10 10 10 10 10 10 10 10 10 10 10 10
CIG-- -- -- -- -- -- -- -- -- -- -- -- --
CoverCLRCLRCLRCLRCLRCLRCLRCLRCLRCLRCLRCLRCLR
FltCatVFRVFRVFRVFRVFRVFRVFRVFRVFRVFRVFRVFRVFR
WX--------------------------
WDir170190160180160160170160140140160140140
WSpd8 3 4 7 8 9 9 9 8 11 10 10 11
WGst-- -- -- -- -- -- -- -- 19 -- -- 17 17
Raw hourly METARs
KMNZ 181055Z AUTO 17008KT 10SM CLR 09/07 A2990 RMK AO2 T00850066
KMNZ 181155Z AUTO 19003KT 10SM CLR 08/07 A2990 RMK AO2 T00770072 10105 20077
KMNZ 181255Z AUTO 16004KT 10SM CLR 07/07 A2990 RMK AO2 T00720072
KMNZ 181355Z AUTO 18007KT 10SM CLR 11/09 A2991 RMK AO2 T01110094
KMNZ 181455Z AUTO 16008KT 10SM CLR 15/09 A2991 RMK AO2 T01520086
KMNZ 181555Z AUTO 16009KT 10SM CLR 19/08 A2990 RMK AO2 T01880080
KMNZ 181655Z AUTO 17009KT 10SM CLR 22/09 A2987 RMK AO2 T02150086
KMNZ 181755Z AUTO 16009KT 10SM CLR 24/10 A2985 RMK AO2 T02360097 10236 20070
KMNZ 181855Z AUTO 14008G19KT 10SM CLR 25/10 A2981 RMK AO2 T02520100
KMNZ 181955Z AUTO 14011KT 10SM CLR 26/10 A2977 RMK AO2 T02640095
KMNZ 182055Z AUTO 16010KT 10SM CLR 27/10 A2975 RMK AO2 T02670100
KMNZ 182155Z AUTO 14010G17KT 10SM CLR 27/10 A2974 RMK AO2 T02650098
KMNZ 182255Z AUTO 14011G17KT 10SM CLR 26/08 A2974 RMK AO2 T02560081